Time;durP1;ratioP1;P1;durP2;ratioP2;P2;SDS_P1;SDS_P2;PMS_P1;PMS_P2;Temp;Humidity;BMP_temperature;BMP_pressure;BME280_temperature;BME280_humidity;BME280_pressure;Samples;Min_cycle;Max_cycle;Signal;HPM_P1;HPM_P2
2021/05/05 00:00:30;;;;;;;4.25;1.42;;;;;;;5.69;81.61;99870.06;1048888;28;20053;-85
2021/05/05 00:01:05;;;;;;;3.25;1.67;;;;;;;5.70;81.69;99874.34;1048208;28;20055;-84
2021/05/05 00:01:49;;;;;;;5.18;2.10;;;;;;;5.71;81.90;99880.34;1045915;28;20568;-84
2021/05/05 00:02:21;;;;;;;5.10;2.15;;;;;;;5.70;82.27;99874.34;1044162;28;20135;-85
2021/05/05 00:02:52;;;;;;;2.53;1.92;;;;;;;5.69;82.14;99869.22;1046790;28;20041;-85
2021/05/05 00:03:23;;;;;;;6.35;2.13;;;;;;;5.68;81.76;99876.03;1046619;28;20052;-84
2021/05/05 00:03:54;;;;;;;5.35;1.80;;;;;;;5.67;82.08;99869.16;1044594;28;20520;-85
2021/05/05 00:04:26;;;;;;;4.70;1.90;;;;;;;5.69;81.98;99869.22;1048384;28;20127;-85
2021/05/05 00:04:57;;;;;;;6.03;2.13;;;;;;;5.70;81.31;99879.50;1048779;28;20098;-85
2021/05/05 00:05:29;;;;;;;3.47;1.80;;;;;;;5.70;81.42;99870.94;1048892;28;20084;-84
2021/05/05 00:06:02;;;;;;;6.80;2.15;;;;;;;5.70;81.50;99881.19;1052454;28;20055;-84
2021/05/05 00:06:33;;;;;;;7.10;1.10;;;;;;;5.70;81.26;99876.06;1052449;28;20071;-84
2021/05/05 00:07:04;;;;;;;3.47;1.67;;;;;;;5.71;81.58;99877.78;1052415;28;20067;-84
2021/05/05 00:07:35;;;;;;;8.35;2.63;;;;;;;5.73;81.40;99879.56;1052393;28;20040;-85
2021/05/05 00:08:06;;;;;;;5.35;1.80;;;;;;;5.73;81.29;99881.25;1048498;28;20401;-85
2021/05/05 00:08:37;;;;;;;6.35;2.03;;;;;;;5.72;81.33;99882.94;1048207;28;20082;-85
2021/05/05 00:09:08;;;;;;;6.85;1.92;;;;;;;5.73;81.48;99882.13;1044184;28;20045;-84
2021/05/05 00:09:39;;;;;;;7.80;2.13;;;;;;;5.74;81.09;99881.28;1048557;28;20045;-84
2021/05/05 00:10:12;;;;;;;5.70;1.98;;;;;;;5.72;81.06;99882.06;1048287;28;20080;-84
2021/05/05 00:10:43;;;;;;;6.30;2.42;;;;;;;5.72;81.22;99884.66;1048519;28;20073;-85
2021/05/05 00:11:14;;;;;;;4.93;2.15;;;;;;;5.72;81.26;99887.22;1052280;28;20048;-85
2021/05/05 00:11:45;;;;;;;4.13;1.75;;;;;;;5.70;81.34;99886.31;1051579;28;20109;-84
2021/05/05 00:12:16;;;;;;;6.03;2.05;;;;;;;5.69;81.07;99876.91;1048668;28;20072;-84
2021/05/05 00:12:48;;;;;;;3.47;1.80;;;;;;;5.73;81.34;99886.38;1052542;28;20432;-85
2021/05/05 00:13:19;;;;;;;4.30;1.88;;;;;;;5.71;81.56;99878.66;1052458;28;20063;-83
2021/05/05 00:13:51;;;;;;;3.45;2.40;;;;;;;5.70;81.81;99886.31;1052525;28;20495;-85
2021/05/05 00:14:23;;;;;;;5.38;1.75;;;;;;;5.70;81.56;99879.50;1052316;28;20044;-85
2021/05/05 00:14:54;;;;;;;6.65;2.40;;;;;;;5.72;81.64;99884.66;1052470;28;20050;-86
2021/05/05 00:15:25;;;;;;;5.80;2.30;;;;;;;5.70;81.45;99879.50;1052656;28;20048;-83
2021/05/05 00:15:56;;;;;;;6.47;2.17;;;;;;;5.70;81.85;99882.06;1052610;28;20051;-81
2021/05/05 00:16:27;;;;;;;6.30;2.10;;;;;;;5.69;81.57;99882.91;1052366;28;20056;-85
2021/05/05 00:16:58;;;;;;;4.30;1.98;;;;;;;5.68;81.47;99880.31;1048318;28;20053;-84
2021/05/05 00:17:29;;;;;;;7.03;2.13;;;;;;;5.68;81.67;99881.19;1048160;28;20476;-85
2021/05/05 00:18:00;;;;;;;4.78;1.52;;;;;;;5.68;81.67;99881.19;1048351;28;20064;-84
2021/05/05 00:18:32;;;;;;;11.52;2.53;;;;;;;5.68;80.98;99881.19;1048333;28;20079;-84
2021/05/05 00:19:04;;;;;;;6.47;1.90;;;;;;;5.71;81.35;99888.06;1045578;28;20053;-86
2021/05/05 00:19:35;;;;;;;6.35;2.03;;;;;;;5.69;81.56;99894.88;1044162;28;20057;-86
2021/05/05 00:20:08;;;;;;;4.85;2.03;;;;;;;5.70;82.02;99888.91;1044700;28;20045;-85
2021/05/05 00:20:39;;;;;;;5.55;1.50;;;;;;;5.68;80.74;99888.88;1048857;28;20047;-84
2021/05/05 00:21:10;;;;;;;5.82;2.35;;;;;;;5.68;81.37;99880.31;1049666;28;20056;-84
2021/05/05 00:21:42;;;;;;;4.85;1.95;;;;;;;5.65;81.43;99888.81;1048352;28;20427;-83
2021/05/05 00:22:13;;;;;;;4.82;2.22;;;;;;;5.67;81.54;99887.13;1048371;28;20131;-85
2021/05/05 00:22:44;;;;;;;5.55;2.20;;;;;;;5.66;81.72;99880.25;1044142;28;20501;-86
2021/05/05 00:23:15;;;;;;;8.45;2.35;;;;;;;5.66;81.53;99880.25;1040536;28;20053;-85
2021/05/05 00:23:46;;;;;;;8.68;1.80;;;;;;;5.66;82.07;99872.56;1045795;28;20081;-86
2021/05/05 00:24:17;;;;;;;7.18;2.35;;;;;;;5.66;81.75;99879.41;1044615;28;20045;-84
2021/05/05 00:24:48;;;;;;;6.88;2.35;;;;;;;5.66;81.85;99881.97;1048603;28;20123;-85
2021/05/05 00:25:20;;;;;;;3.22;2.08;;;;;;;5.65;81.73;99875.13;1052417;28;20077;-85
2021/05/05 00:25:51;;;;;;;7.70;2.03;;;;;;;5.64;81.85;99875.94;1048657;28;20142;-81
2021/05/05 00:26:22;;;;;;;10.48;2.38;;;;;;;5.63;82.35;99872.53;1048265;28;20530;-84
2021/05/05 00:26:53;;;;;;;6.25;1.85;;;;;;;5.62;82.07;99880.19;1048053;28;20460;-84
2021/05/05 00:27:24;;;;;;;8.20;2.15;;;;;;;5.62;82.02;99873.38;1044251;28;20524;-86
2021/05/05 00:27:56;;;;;;;5.18;2.25;;;;;;;5.61;81.65;99865.63;1048657;28;20048;-84
2021/05/05 00:28:27;;;;;;;6.95;2.38;;;;;;;5.59;82.11;99881.84;1048204;28;20063;-83
2021/05/05 00:28:58;;;;;;;3.17;1.70;;;;;;;5.61;82.05;99881.88;1044646;28;20055;-84
2021/05/05 00:29:29;;;;;;;6.00;1.85;;;;;;;5.61;81.60;99884.44;1048194;28;20076;-85
2021/05/05 00:30:00;;;;;;;6.97;2.03;;;;;;;5.61;81.54;99871.59;1044296;28;20051;-85
2021/05/05 00:30:32;;;;;;;8.65;2.70;;;;;;;5.62;81.53;99873.38;1044794;28;20049;-84
2021/05/05 00:31:03;;;;;;;3.85;1.90;;;;;;;5.61;82.10;99871.59;1044131;28;20045;-85
2021/05/05 00:31:35;;;;;;;4.90;1.90;;;;;;;5.63;81.88;99882.78;1046440;28;20052;-86
2021/05/05 00:32:07;;;;;;;5.57;1.70;;;;;;;5.63;81.57;99869.97;1044571;28;20450;-85
2021/05/05 00:32:39;;;;;;;4.55;2.28;;;;;;;5.63;81.91;99869.09;1048917;28;20431;-84
2021/05/05 00:33:10;;;;;;;7.93;2.33;;;;;;;5.63;81.85;99863.97;1048233;28;20044;-82
2021/05/05 00:33:41;;;;;;;7.72;2.10;;;;;;;5.63;82.12;99875.09;1048200;28;20048;-85
2021/05/05 00:34:12;;;;;;;7.68;2.30;;;;;;;5.63;81.82;99866.53;1048855;28;20574;-83
2021/05/05 00:34:43;;;;;;;3.55;2.00;;;;;;;5.63;82.18;99869.97;1052452;28;20515;-84
2021/05/05 00:35:15;;;;;;;5.18;1.77;;;;;;;5.62;81.83;99870.81;1052360;28;20069;-83
2021/05/05 00:35:46;;;;;;;5.38;2.47;;;;;;;5.63;81.95;99869.97;1052367;28;20055;-86
2021/05/05 00:36:17;;;;;;;6.63;2.80;;;;;;;5.63;82.11;99876.78;1052406;28;20051;-85
2021/05/05 00:36:48;;;;;;;7.28;2.70;;;;;;;5.61;81.90;99863.91;1052502;28;20104;-84
2021/05/05 00:37:19;;;;;;;8.88;2.63;;;;;;;5.61;82.09;99875.88;1052182;28;20197;-85
2021/05/05 00:37:50;;;;;;;6.57;2.38;;;;;;;5.60;82.27;99875.03;1048106;28;20127;-83
2021/05/05 00:38:21;;;;;;;8.25;2.85;;;;;;;5.61;82.16;99870.75;1048478;28;20075;-85
2021/05/05 00:38:52;;;;;;;5.28;2.10;;;;;;;5.61;81.94;99870.75;1052436;28;20051;-83
2021/05/05 00:39:23;;;;;;;8.85;3.13;;;;;;;5.62;82.34;99868.22;1048425;28;20475;-84
2021/05/05 00:39:56;;;;;;;8.25;2.45;;;;;;;5.62;82.24;99873.38;1052377;28;20051;-85
2021/05/05 00:40:27;;;;;;;7.18;2.30;;;;;;;5.61;81.58;99868.19;1048225;28;20115;-84
2021/05/05 00:40:58;;;;;;;10.75;2.97;;;;;;;5.62;81.90;99873.38;1044569;28;20053;-84
2021/05/05 00:41:29;;;;;;;6.47;1.67;;;;;;;5.62;81.47;99870.81;1043997;28;20464;-82
2021/05/05 00:42:00;;;;;;;9.57;2.83;;;;;;;5.63;81.43;99879.38;1044292;28;20041;-85
2021/05/05 00:42:31;;;;;;;6.53;2.08;;;;;;;5.62;81.70;99870.81;1044538;28;20102;-84
2021/05/05 00:43:03;;;;;;;8.95;2.90;;;;;;;5.63;81.29;99872.53;1048251;28;20053;-83
2021/05/05 00:43:34;;;;;;;5.78;1.90;;;;;;;5.63;81.51;99866.53;1052294;28;20039;-85
2021/05/05 00:44:06;;;;;;;7.43;2.33;;;;;;;5.63;81.28;99871.66;1048183;28;20040;-84
2021/05/05 00:44:37;;;;;;;9.88;2.33;;;;;;;5.65;81.83;99869.97;1044190;28;20053;-86
2021/05/05 00:45:11;;;;;;;5.82;2.72;;;;;;;5.62;81.32;99870.81;1040436;28;20057;-85
2021/05/05 00:45:43;;;;;;;6.15;2.22;;;;;;;5.61;81.46;99878.44;1041057;28;20049;-84
2021/05/05 00:46:14;;;;;;;7.97;2.75;;;;;;;5.62;80.99;99872.50;1039894;28;20100;-85
2021/05/05 00:46:45;;;;;;;7.93;2.47;;;;;;;5.59;81.55;99866.47;1040188;28;20081;-85
2021/05/05 00:47:18;;;;;;;6.90;3.00;;;;;;;5.62;81.69;99875.94;1043828;28;20049;-87
2021/05/05 00:47:53;;;;;;;12.50;2.70;;;;;;;5.61;81.73;99868.19;1041100;28;20188;-84
2021/05/05 00:48:24;;;;;;;5.15;2.30;;;;;;;5.62;81.50;99875.06;1043699;28;20071;-85
2021/05/05 00:48:55;;;;;;;8.50;3.45;;;;;;;5.62;81.58;99865.66;1041150;28;20131;-86
2021/05/05 00:49:26;;;;;;;5.20;2.70;;;;;;;5.62;81.97;99865.66;1044215;28;20056;-85
2021/05/05 00:49:57;;;;;;;7.25;3.22;;;;;;;5.62;82.18;99863.09;1044596;28;20055;-85
2021/05/05 00:50:28;;;;;;;6.53;2.90;;;;;;;5.61;81.70;99861.34;1048072;28;20059;-85
2021/05/05 00:51:01;;;;;;;5.00;2.67;;;;;;;5.62;81.97;99863.09;1044641;28;20048;-85
2021/05/05 00:51:32;;;;;;;4.65;2.25;;;;;;;5.61;81.62;99863.91;1044005;28;20175;-85
2021/05/05 00:52:04;;;;;;;4.13;2.83;;;;;;;5.61;81.45;99869.03;1040241;28;20095;-84
2021/05/05 00:52:36;;;;;;;5.85;2.70;;;;;;;5.62;81.68;99864.81;1040968;28;20054;-86
2021/05/05 00:53:08;;;;;;;12.20;3.10;;;;;;;5.62;82.16;99865.66;1046027;28;20057;-85
2021/05/05 00:53:40;;;;;;;3.95;2.65;;;;;;;5.59;81.60;99863.91;1044691;28;20064;-85
2021/05/05 00:54:11;;;;;;;8.13;3.03;;;;;;;5.58;81.30;99862.16;1043928;28;20051;-83
2021/05/05 00:54:42;;;;;;;9.32;2.80;;;;;;;5.58;81.76;99869.00;1046907;28;20056;-86
2021/05/05 00:55:14;;;;;;;6.60;2.50;;;;;;;5.57;81.79;99867.28;1048151;28;20109;-84
2021/05/05 00:55:45;;;;;;;9.40;3.35;;;;;;;5.57;81.74;99865.56;1044409;28;20048;-85
2021/05/05 00:56:16;;;;;;;5.82;2.92;;;;;;;5.58;81.30;99866.44;1043978;28;20505;-85
2021/05/05 00:56:47;;;;;;;8.02;2.53;;;;;;;5.56;81.32;99863.84;1040153;28;20045;-81
2021/05/05 00:57:19;;;;;;;6.93;3.22;;;;;;;5.57;82.06;99865.56;1040045;28;20157;-85
2021/05/05 00:57:51;;;;;;;6.22;3.03;;;;;;;5.54;81.84;99862.94;1044492;28;20056;-85
2021/05/05 00:58:22;;;;;;;4.55;2.72;;;;;;;5.53;81.53;99868.91;1045121;28;20143;-85
2021/05/05 00:58:53;;;;;;;9.68;2.97;;;;;;;5.55;81.35;99859.53;1049407;28;20044;-86
2021/05/05 00:59:25;;;;;;;10.32;3.22;;;;;;;5.55;81.72;99868.94;1049035;28;20088;-86
2021/05/05 00:59:57;;;;;;;5.05;2.40;;;;;;;5.55;81.76;99869.78;1049639;28;20044;-84
2021/05/05 01:00:28;;;;;;;7.03;3.00;;;;;;;5.55;81.26;99858.66;1045402;28;20045;-86
2021/05/05 01:00:59;;;;;;;8.32;3.63;;;;;;;5.57;81.09;99867.28;1049591;28;20044;-84
2021/05/05 01:01:30;;;;;;;5.75;3.33;;;;;;;5.57;81.47;99869.84;1049085;28;20087;-85
2021/05/05 01:02:02;;;;;;;8.35;2.65;;;;;;;5.55;81.34;99859.53;1049577;28;20456;-85
2021/05/05 01:02:34;;;;;;;10.07;2.83;;;;;;;5.54;81.31;99867.22;1053440;28;20431;-85
2021/05/05 01:03:05;;;;;;;3.53;1.67;;;;;;;5.54;81.19;99862.06;1049395;28;20050;-82
2021/05/05 01:03:37;;;;;;;8.27;2.80;;;;;;;5.51;81.16;99865.47;1048909;28;20052;-84
2021/05/05 01:04:10;;;;;;;8.70;3.28;;;;;;;5.50;81.71;99855.16;1047916;28;20048;-85
2021/05/05 01:04:41;;;;;;;8.20;2.75;;;;;;;5.51;81.09;99867.16;1045567;28;20428;-84
2021/05/05 01:05:13;;;;;;;13.50;3.72;;;;;;;5.50;81.48;99856.03;1049684;28;20045;-85
2021/05/05 01:05:45;;;;;;;8.38;3.83;;;;;;;5.49;81.44;99869.69;1044700;28;20052;-85
2021/05/05 01:06:16;;;;;;;6.03;3.65;;;;;;;5.49;81.63;99868.81;1044641;28;20187;-86
2021/05/05 01:06:48;;;;;;;7.03;3.58;;;;;;;5.47;81.20;99868.78;1045408;28;20063;-84
2021/05/05 01:07:19;;;;;;;8.85;3.65;;;;;;;5.47;81.28;99865.38;1049335;28;20048;-85
2021/05/05 01:07:50;;;;;;;8.25;3.85;;;;;;;5.46;81.63;99866.22;1053134;28;20048;-85
2021/05/05 01:08:22;;;;;;;6.88;2.90;;;;;;;5.47;81.15;99867.94;1052974;28;20052;-85
2021/05/05 01:08:54;;;;;;;8.77;3.85;;;;;;;5.46;81.80;99871.34;1053187;28;20044;-85
2021/05/05 01:09:27;;;;;;;9.30;3.97;;;;;;;5.44;81.73;99868.72;1053033;28;20052;-85
2021/05/05 01:09:58;;;;;;;5.68;3.50;;;;;;;5.45;81.26;99874.75;1053094;28;20035;-85
2021/05/05 01:10:29;;;;;;;11.88;3.35;;;;;;;5.43;81.49;99874.69;1052967;28;20056;-85
2021/05/05 01:11:01;;;;;;;8.15;3.78;;;;;;;5.44;81.52;99870.44;1048964;28;20189;-84
2021/05/05 01:11:32;;;;;;;8.13;2.80;;;;;;;5.43;81.15;99861.88;1045022;28;20053;-82
2021/05/05 01:12:03;;;;;;;8.23;3.70;;;;;;;5.45;80.99;99856.78;1048992;28;20040;-85
2021/05/05 01:12:35;;;;;;;9.05;3.58;;;;;;;5.46;81.08;99866.22;1045351;28;20405;-85
2021/05/05 01:13:06;;;;;;;11.48;3.50;;;;;;;5.44;81.46;99876.41;1048862;28;20072;-84
2021/05/05 01:13:38;;;;;;;5.60;2.60;;;;;;;5.47;80.57;99863.66;1044856;28;20198;-85
2021/05/05 01:14:09;;;;;;;7.18;2.72;;;;;;;5.50;80.29;99867.97;1041106;28;20049;-86
2021/05/05 01:14:41;;;;;;;14.18;3.47;;;;;;;5.49;80.95;99866.25;1045391;28;20082;-84
2021/05/05 01:15:15;;;;;;;8.25;2.95;;;;;;;5.47;80.80;99873.06;1048974;28;20436;-84
2021/05/05 01:15:46;;;;;;;4.40;2.90;;;;;;;5.47;80.61;99870.50;1050705;28;20056;-85
2021/05/05 01:16:17;;;;;;;5.72;2.75;;;;;;;5.46;80.88;99872.19;1052944;28;20111;-84
2021/05/05 01:16:53;;;;;;;6.70;3.08;;;;;;;5.47;81.27;99873.06;1048814;28;20162;-85
2021/05/05 01:17:24;;;;;;;9.18;2.83;;;;;;;5.45;81.03;99862.78;1048556;28;20049;-84
2021/05/05 01:17:55;;;;;;;3.95;2.25;;;;;;;5.48;80.32;99872.22;1046275;28;20048;-81
2021/05/05 01:18:26;;;;;;;8.27;2.67;;;;;;;5.47;80.60;99867.94;1049965;28;20127;-85
2021/05/05 01:18:57;;;;;;;8.95;2.90;;;;;;;5.46;81.08;99867.06;1052928;28;20044;-84
2021/05/05 01:19:28;;;;;;;4.63;3.38;;;;;;;5.46;81.39;99876.47;1053107;28;20056;-85
2021/05/05 01:20:00;;;;;;;5.53;3.20;;;;;;;5.45;81.48;99879.88;1053117;28;20059;-84
2021/05/05 01:20:31;;;;;;;4.75;2.17;;;;;;;5.42;81.85;99866.97;1053353;28;20069;-87
2021/05/05 01:21:03;;;;;;;5.68;2.25;;;;;;;5.39;82.39;99883.19;1048848;28;20076;-86
2021/05/05 01:21:34;;;;;;;5.82;2.13;;;;;;;5.36;82.70;99870.28;1045172;28;20052;-85
2021/05/05 01:22:05;;;;;;;4.95;2.15;;;;;;;5.31;82.86;99877.88;1048852;28;20053;-86
2021/05/05 01:22:37;;;;;;;7.85;3.63;;;;;;;5.32;83.40;99878.75;1045218;28;20053;-84
2021/05/05 01:23:08;;;;;;;6.82;1.98;;;;;;;5.25;83.53;99876.91;1045413;28;20041;-86
2021/05/05 01:23:39;;;;;;;5.57;2.47;;;;;;;5.24;83.47;99876.03;1048641;28;20105;-85
2021/05/05 01:24:11;;;;;;;8.68;3.00;;;;;;;5.24;84.10;99888.84;1049331;28;20045;-84
2021/05/05 01:24:42;;;;;;;5.85;2.90;;;;;;;5.21;84.69;99886.22;1048837;28;20044;-85
2021/05/05 01:25:14;;;;;;;4.60;2.22;;;;;;;5.21;84.88;99893.03;1048824;28;20051;-84
2021/05/05 01:25:45;;;;;;;5.47;2.53;;;;;;;5.19;84.46;99894.72;1044830;28;20041;-85
2021/05/05 01:26:16;;;;;;;3.40;1.60;;;;;;;5.15;84.63;99898.91;1045185;28;20045;-86
2021/05/05 01:26:47;;;;;;;5.35;2.63;;;;;;;5.14;85.08;99894.63;1048957;28;20131;-84
2021/05/05 01:27:18;;;;;;;4.97;2.25;;;;;;;5.12;85.16;99898.00;1052523;28;20055;-85
2021/05/05 01:27:50;;;;;;;8.43;2.13;;;;;;;5.07;85.12;99903.03;1048751;28;20063;-83
2021/05/05 01:28:21;;;;;;;8.63;3.13;;;;;;;5.07;85.04;99894.47;1048985;28;20178;-85
2021/05/05 01:28:57;;;;;;;9.75;3.17;;;;;;;5.07;85.65;99904.72;1045189;28;20072;-85
2021/05/05 01:29:28;;;;;;;5.07;1.20;;;;;;;5.01;85.45;99893.50;1045791;28;20045;-83
2021/05/05 01:29:59;;;;;;;7.50;2.45;;;;;;;4.98;85.68;99901.09;1048703;28;20093;-82
2021/05/05 01:30:30;;;;;;;6.78;2.45;;;;;;;4.95;86.22;99903.63;1049538;28;20527;-85
2021/05/05 01:31:01;;;;;;;8.90;2.55;;;;;;;4.94;86.43;99899.34;1052897;28;20190;-84
2021/05/05 01:31:32;;;;;;;4.70;2.55;;;;;;;4.91;86.29;99896.69;1052696;28;20189;-83
2021/05/05 01:32:05;;;;;;;1.23;1.00;;;;;;;4.88;86.30;99901.75;1052940;28;20051;-85
2021/05/05 01:32:37;;;;;;;2.40;1.10;;;;;;;4.85;85.69;99895.69;1048925;28;20051;-85
2021/05/05 01:33:09;;;;;;;3.55;1.85;;;;;;;4.84;86.08;99894.81;1049605;28;20484;-84
2021/05/05 01:33:41;;;;;;;5.85;2.05;;;;;;;4.84;86.49;99899.09;1053082;28;20048;-86
2021/05/05 01:34:12;;;;;;;6.05;2.28;;;;;;;4.84;86.93;99896.53;1052967;28;20048;-85
2021/05/05 01:34:44;;;;;;;5.22;2.10;;;;;;;4.80;86.90;99887.91;1049040;28;20194;-85
2021/05/05 01:35:17;;;;;;;7.78;2.20;;;;;;;4.81;86.52;99896.44;1048833;28;20097;-84
2021/05/05 01:35:49;;;;;;;3.33;1.77;;;;;;;4.78;86.73;99887.88;1048944;28;20056;-84
2021/05/05 01:36:23;;;;;;;4.53;2.15;;;;;;;4.73;86.30;99884.34;1049582;28;20071;-84
2021/05/05 01:36:54;;;;;;;7.82;2.33;;;;;;;4.72;86.64;99897.13;1048654;28;20044;-84
2021/05/05 01:37:25;;;;;;;5.03;2.38;;;;;;;4.72;86.57;99892.84;1045604;28;20045;-84
2021/05/05 01:37:56;;;;;;;6.88;2.10;;;;;;;4.72;86.75;99884.31;1044540;28;20052;-85
2021/05/05 01:38:27;;;;;;;5.40;2.50;;;;;;;4.71;86.89;99888.56;1044755;28;20045;-84
2021/05/05 01:38:59;;;;;;;3.42;1.77;;;;;;;4.71;87.58;99880.88;1049360;28;20053;-84
2021/05/05 01:39:30;;;;;;;3.88;2.00;;;;;;;4.71;87.34;99891.13;1048973;28;20044;-86
2021/05/05 01:40:04;;;;;;;5.85;2.05;;;;;;;4.69;86.83;99884.22;1044946;28;20091;-85
2021/05/05 01:40:35;;;;;;;9.07;2.90;;;;;;;4.71;86.73;99887.72;1048809;28;20052;-85
2021/05/05 01:41:06;;;;;;;6.55;2.00;;;;;;;4.67;86.38;99888.47;1045558;28;20055;-83
2021/05/05 01:41:37;;;;;;;6.63;1.80;;;;;;;4.66;86.70;99890.16;1049394;28;20614;-84
2021/05/05 01:42:09;;;;;;;4.35;1.90;;;;;;;4.69;86.83;99891.91;1053143;28;20538;-85
2021/05/05 01:42:40;;;;;;;4.45;2.38;;;;;;;4.67;86.99;99880.78;1049101;28;20057;-85
2021/05/05 01:43:12;;;;;;;9.65;2.60;;;;;;;4.65;87.28;99882.41;1048800;28;20088;-84
2021/05/05 01:43:43;;;;;;;5.43;1.95;;;;;;;4.64;86.77;99886.69;1044666;28;20128;-85
2021/05/05 01:44:15;;;;;;;9.88;2.58;;;;;;;4.65;86.44;99890.09;1040832;28;20041;-85
2021/05/05 01:44:46;;;;;;;5.35;2.08;;;;;;;4.64;86.82;99885.81;1045029;28;20114;-86
2021/05/05 01:45:17;;;;;;;10.98;1.70;;;;;;;4.65;86.97;99895.22;1045153;28;20068;-81
2021/05/05 01:45:48;;;;;;;12.30;2.85;;;;;;;4.62;86.49;99895.16;1049203;28;20044;-83
2021/05/05 01:46:21;;;;;;;8.10;2.38;;;;;;;4.59;86.35;99895.09;1048762;28;20501;-83
2021/05/05 01:46:52;;;;;;;6.97;2.63;;;;;;;4.57;86.80;99889.06;1045119;28;20045;-84
2021/05/05 01:47:23;;;;;;;7.70;2.85;;;;;;;4.54;87.05;99889.88;1047124;28;20053;-84
2021/05/05 01:47:59;;;;;;;10.88;3.05;;;;;;;4.58;87.29;99890.81;1045389;28;20044;-85
2021/05/05 01:48:31;;;;;;;4.43;2.13;;;;;;;4.56;87.06;99895.91;1052932;28;20044;-83
2021/05/05 01:49:02;;;;;;;5.68;1.90;;;;;;;4.57;87.27;99883.94;1053288;28;20040;-84
2021/05/05 01:49:33;;;;;;;6.35;1.88;;;;;;;4.53;87.37;99894.09;1052815;28;20059;-86
2021/05/05 01:50:05;;;;;;;8.85;2.30;;;;;;;4.51;86.83;99892.34;1052990;28;20052;-86
2021/05/05 01:50:37;;;;;;;8.27;2.65;;;;;;;4.49;86.96;99882.09;1048744;28;20127;-84
2021/05/05 01:51:08;;;;;;;5.30;1.40;;;;;;;4.45;86.99;99884.53;1049227;28;20049;-81
2021/05/05 01:51:39;;;;;;;7.15;2.40;;;;;;;4.48;87.15;99882.91;1052628;28;20144;-83
2021/05/05 01:52:12;;;;;;;6.40;2.28;;;;;;;4.50;87.51;99885.50;1052961;28;20044;-84
2021/05/05 01:52:43;;;;;;;5.55;1.73;;;;;;;4.44;87.57;99876.00;1052978;28;20048;-84
2021/05/05 01:53:16;;;;;;;6.68;2.42;;;;;;;4.48;87.54;99876.91;1048642;28;20048;-84
2021/05/05 01:53:47;;;;;;;5.70;2.17;;;;;;;4.47;87.59;99883.72;1049515;28;20174;-84
2021/05/05 01:54:18;;;;;;;12.13;2.30;;;;;;;4.47;87.64;99880.31;1048797;28;20052;-84
2021/05/05 01:54:49;;;;;;;7.10;1.88;;;;;;;4.45;87.32;99884.53;1044428;28;20049;-84
2021/05/05 01:55:21;;;;;;;6.97;2.75;;;;;;;4.48;87.07;99884.59;1040486;28;20116;-84
2021/05/05 01:55:51;;;;;;;9.95;2.80;;;;;;;4.49;87.18;99884.66;1040876;28;20045;-84
2021/05/05 01:56:22;;;;;;;5.70;2.70;;;;;;;4.49;87.63;99889.78;1048240;28;20098;-84
2021/05/05 01:56:53;;;;;;;8.45;2.22;;;;;;;4.47;87.35;99890.53;1049060;28;20045;-84
2021/05/05 01:57:38;;;;;;;3.33;1.63;;;;;;;4.48;87.56;99888.03;1044578;28;20075;-85
2021/05/05 01:58:10;;;;;;;7.97;2.67;;;;;;;4.47;87.81;99893.97;1044595;28;20439;-82
2021/05/05 01:58:41;;;;;;;8.02;2.25;;;;;;;4.44;87.69;99893.91;1046948;28;20049;-82
2021/05/05 01:59:12;;;;;;;7.25;2.50;;;;;;;4.46;88.07;99899.06;1046695;28;20404;-84
2021/05/05 01:59:43;;;;;;;4.28;1.48;;;;;;;4.43;87.55;99892.19;1052546;28;20040;-85
2021/05/05 02:00:18;;;;;;;5.28;1.75;;;;;;;4.44;87.46;99895.59;1052836;28;20051;-83
2021/05/05 02:00:49;;;;;;;4.00;1.60;;;;;;;4.44;87.55;99883.66;1048507;28;20041;-84
2021/05/05 02:01:20;;;;;;;6.28;3.05;;;;;;;4.44;87.62;99885.38;1052572;28;20138;-82
2021/05/05 02:01:51;;;;;;;12.02;2.33;;;;;;;4.44;87.65;99880.25;1052766;28;20519;-81
2021/05/05 02:02:22;;;;;;;8.35;1.95;;;;;;;4.43;87.40;99891.31;1048731;28;20396;-81
2021/05/05 02:02:54;;;;;;;7.32;2.65;;;;;;;4.44;87.50;99883.66;1049117;28;20048;-83
2021/05/05 02:03:25;;;;;;;5.43;2.28;;;;;;;4.44;87.65;99882.81;1052908;28;20492;-83
2021/05/05 02:04:00;;;;;;;10.75;2.78;;;;;;;4.43;88.17;99892.19;1052841;28;20550;-83
2021/05/05 02:04:31;;;;;;;10.88;3.15;;;;;;;4.43;88.10;99889.63;1052740;28;20512;-81
2021/05/05 02:05:03;;;;;;;7.28;2.47;;;;;;;4.43;87.24;99887.06;1052883;28;20048;-82
2021/05/05 02:05:35;;;;;;;5.70;2.17;;;;;;;4.42;87.48;99884.44;1052504;28;20054;-83
2021/05/05 02:06:06;;;;;;;8.35;3.00;;;;;;;4.43;87.51;99891.31;1049159;28;20045;-84
2021/05/05 02:06:37;;;;;;;4.80;2.08;;;;;;;4.45;87.84;99894.78;1052848;28;20044;-83
2021/05/05 02:07:09;;;;;;;11.63;3.33;;;;;;;4.46;88.05;99887.13;1048600;28;20055;-83
2021/05/05 02:07:41;;;;;;;9.80;2.60;;;;;;;4.46;87.87;99891.38;1044669;28;20132;-82
2021/05/05 02:08:12;;;;;;;10.82;3.75;;;;;;;4.43;88.10;99896.44;1048563;28;20049;-83
2021/05/05 02:08:43;;;;;;;7.38;3.53;;;;;;;4.43;88.05;99892.19;1045032;28;20045;-81
2021/05/05 02:09:14;;;;;;;3.10;0.82;;;;;;;4.43;88.07;99888.75;1049063;28;20041;-82
2021/05/05 02:09:45;;;;;;;3.80;1.65;;;;;;;4.43;87.49;99891.31;1052324;28;20075;-84
2021/05/05 02:10:18;;;;;;;11.65;3.10;;;;;;;4.43;87.62;99894.75;1048654;28;20466;-83
2021/05/05 02:10:49;;;;;;;9.55;2.65;;;;;;;4.44;87.89;99893.06;1048482;28;20052;-84
2021/05/05 02:11:20;;;;;;;7.95;2.92;;;;;;;4.45;88.18;99890.53;1048678;28;20055;-84
2021/05/05 02:11:51;;;;;;;7.65;2.70;;;;;;;4.48;88.50;99890.59;1049305;28;20107;-82
2021/05/05 02:12:22;;;;;;;11.57;2.53;;;;;;;4.43;87.80;99894.75;1052677;28;20063;-83
2021/05/05 02:12:53;;;;;;;9.40;2.80;;;;;;;4.45;88.22;99895.63;1048750;28;20158;-83
2021/05/05 02:13:24;;;;;;;14.45;3.00;;;;;;;4.44;88.07;99901.59;1048746;28;20048;-83
2021/05/05 02:13:55;;;;;;;6.38;2.58;;;;;;;4.43;87.94;99889.63;1048959;28;20083;-83
2021/05/05 02:14:26;;;;;;;9.30;3.08;;;;;;;4.43;88.01;99897.31;1048821;28;20059;-82
2021/05/05 02:14:57;;;;;;;6.22;2.55;;;;;;;4.40;88.21;99897.22;1048718;28;20055;-81
2021/05/05 02:15:28;;;;;;;6.68;2.47;;;;;;;4.40;88.17;99889.53;1044507;28;20106;-82
2021/05/05 02:16:00;;;;;;;8.82;2.35;;;;;;;4.43;87.92;99891.31;1040716;28;20128;-82
2021/05/05 02:16:31;;;;;;;11.07;3.58;;;;;;;4.43;87.81;99893.88;1044793;28;20052;-81
2021/05/05 02:17:02;;;;;;;13.73;3.33;;;;;;;4.44;88.27;99895.59;1044985;28;20076;-82
2021/05/05 02:17:34;;;;;;;10.32;2.67;;;;;;;4.40;88.44;99892.09;1048978;28;20052;-82
2021/05/05 02:18:09;;;;;;;11.02;2.85;;;;;;;4.41;87.70;99892.97;1052552;28;20044;-82
2021/05/05 02:18:41;;;;;;;3.80;1.98;;;;;;;4.39;87.68;99892.06;1049467;28;20105;-81
2021/05/05 02:19:14;;;;;;;8.45;3.03;;;;;;;4.41;88.36;99896.38;1052701;28;20047;-80
2021/05/05 02:19:45;;;;;;;10.80;3.20;;;;;;;4.40;88.52;99886.13;1052643;28;20384;-81
2021/05/05 02:20:20;;;;;;;6.18;2.63;;;;;;;4.37;87.67;99886.91;1052746;28;20044;-81
2021/05/05 02:20:51;;;;;;;7.88;2.63;;;;;;;4.37;87.63;99893.72;1052887;28;20044;-82
2021/05/05 02:21:22;;;;;;;7.35;2.17;;;;;;;4.37;87.53;99886.91;1052930;28;20514;-81
2021/05/05 02:21:53;;;;;;;8.57;2.35;;;;;;;4.37;87.72;99883.47;1052798;28;20051;-82
2021/05/05 02:22:24;;;;;;;10.93;2.63;;;;;;;4.36;87.47;99881.75;1052549;28;20128;-81
2021/05/05 02:22:55;;;;;;;2.97;1.73;;;;;;;4.38;87.80;99878.41;1048600;28;20058;-84
2021/05/05 02:23:26;;;;;;;8.57;2.53;;;;;;;4.37;88.35;99880.91;1048927;28;20060;-82
2021/05/05 02:23:57;;;;;;;10.88;3.10;;;;;;;4.35;88.47;99878.31;1048399;28;20047;-83
2021/05/05 02:24:28;;;;;;;6.30;2.47;;;;;;;4.34;88.16;99884.28;1044904;28;20053;-83
2021/05/05 02:24:59;;;;;;;7.95;2.72;;;;;;;4.31;88.25;99876.53;1048496;28;20052;-83
2021/05/05 02:25:31;;;;;;;14.23;3.65;;;;;;;4.37;88.68;99884.38;1048584;28;20399;-83
2021/05/05 02:26:02;;;;;;;10.93;3.08;;;;;;;4.35;88.96;99886.00;1048604;28;20126;-83
2021/05/05 02:26:33;;;;;;;8.43;3.03;;;;;;;4.32;88.76;99875.69;1045008;28;20124;-81
2021/05/05 02:27:06;;;;;;;6.82;2.58;;;;;;;4.32;88.79;99878.25;1046229;28;20049;-83
2021/05/05 02:27:38;;;;;;;7.70;3.13;;;;;;;4.35;88.85;99883.44;1044541;28;20053;-82
2021/05/05 02:28:09;;;;;;;9.18;2.85;;;;;;;4.35;88.75;99880.88;1040818;28;20479;-82
2021/05/05 02:28:40;;;;;;;9.43;3.03;;;;;;;4.36;88.77;99872.38;1045191;28;20052;-84
2021/05/05 02:29:12;;;;;;;10.80;2.70;;;;;;;4.37;88.91;99878.34;1044903;28;20067;-83
2021/05/05 02:29:43;;;;;;;8.98;3.47;;;;;;;4.36;88.58;99877.47;1044900;28;20409;-82
2021/05/05 02:30:15;;;;;;;9.57;2.72;;;;;;;4.33;88.31;99879.13;1043303;28;20431;-83
2021/05/05 02:30:50;;;;;;;9.57;3.50;;;;;;;4.37;88.61;99878.34;1041204;28;20072;-83